Time;durP1;ratioP1;P1;durP2;ratioP2;P2;SDS_P1;SDS_P2;PMS_P1;PMS_P2;Temp;Humidity;BMP_temperature;BMP_pressure;BME280_temperature;BME280_humidity;BME280_pressure;Samples;Min_cycle;Max_cycle;Signal;HPM_P1;HPM_P2
2023/08/31 00:02:20;0.00;0.00;0.62;0.00;0.00;0.62;1.97;1.70;;;27.70;28.00;;;;;;2264620;61;20364;-54
2023/08/31 00:05:05;0.00;0.00;0.62;0.00;0.00;0.62;2.13;1.43;;;27.70;28.00;;;;;;2264406;61;20380;-52
2023/08/31 00:07:51;0.00;0.00;0.62;0.00;0.00;0.62;2.67;2.20;;;27.70;28.00;;;;;;2264636;61;20395;-54
2023/08/31 00:10:36;0.00;0.00;0.62;0.00;0.00;0.62;2.37;1.70;;;27.70;28.00;;;;;;2264849;61;21174;-56
2023/08/31 00:13:20;0.00;0.00;0.62;0.00;0.00;0.62;2.50;1.83;;;27.70;28.00;;;;;;2264420;61;20445;-51
2023/08/31 00:16:05;0.00;0.00;0.62;0.00;0.00;0.62;3.17;1.90;;;27.70;28.00;;;;;;2264750;61;20360;-50
2023/08/31 00:18:49;0.00;0.00;0.62;0.00;0.00;0.62;2.47;1.40;;;27.70;27.90;;;;;;2264798;61;20368;-50
2023/08/31 00:21:34;0.00;0.00;0.62;0.00;0.00;0.62;2.03;1.70;;;27.70;27.90;;;;;;2264706;61;20418;-54
2023/08/31 00:24:21;0.00;0.00;0.62;0.00;0.00;0.62;2.20;1.60;;;27.70;28.50;;;;;;2264006;61;20462;-54
2023/08/31 00:27:06;0.00;0.00;0.62;0.00;0.00;0.62;2.90;1.70;;;27.70;27.90;;;;;;2264793;61;20383;-55
2023/08/31 00:29:51;0.00;0.00;0.62;0.00;0.00;0.62;2.97;1.63;;;27.70;27.90;;;;;;2264418;61;20364;-53
2023/08/31 00:32:36;0.00;0.00;0.62;0.00;0.00;0.62;2.80;1.87;;;27.70;27.90;;;;;;2264167;61;20425;-56
2023/08/31 00:35:20;0.00;0.00;0.62;0.00;0.00;0.62;2.00;1.67;;;27.70;27.90;;;;;;2264082;61;20380;-56
2023/08/31 00:38:05;0.00;0.00;0.62;0.00;0.00;0.62;3.23;2.30;;;27.70;27.90;;;;;;2264668;61;20968;-51
2023/08/31 00:40:51;0.00;0.00;0.62;0.00;0.00;0.62;4.03;1.90;;;27.60;27.80;;;;;;2264059;61;20384;-52
2023/08/31 00:43:35;0.00;0.00;0.62;0.00;0.00;0.62;2.33;1.90;;;27.60;27.80;;;;;;2264003;61;20514;-48
2023/08/31 00:46:20;0.00;0.00;0.62;0.00;0.00;0.62;2.90;1.90;;;27.60;27.80;;;;;;2263931;61;20407;-52
2023/08/31 00:49:04;0.00;0.00;0.62;0.00;0.00;0.62;2.43;1.53;;;27.60;27.80;;;;;;2264210;61;20383;-54
2023/08/31 00:51:50;0.00;0.00;0.62;0.00;0.00;0.62;2.00;1.70;;;27.60;27.80;;;;;;2264703;61;20395;-53
2023/08/31 00:54:36;0.00;0.00;0.62;0.00;0.00;0.62;3.00;2.10;;;27.60;27.80;;;;;;2260916;61;20391;-57
2023/08/31 00:57:22;0.00;0.00;0.62;0.00;0.00;0.62;2.47;2.10;;;27.60;27.80;;;;;;2264814;61;20356;-55
2023/08/31 01:00:10;0.00;0.00;0.62;0.00;0.00;0.62;2.03;1.43;;;27.60;27.80;;;;;;2264116;61;20387;-52
2023/08/31 01:03:08;0.00;0.00;0.62;0.00;0.00;0.62;2.40;1.60;;;27.60;27.70;;;;;;2264614;61;20368;-53
2023/08/31 01:06:10;0.00;0.00;0.62;0.00;0.00;0.62;3.50;1.90;;;27.60;27.80;;;;;;2264784;61;20434;-55
2023/08/31 01:09:07;0.00;0.00;0.62;0.00;0.00;0.62;2.47;2.03;;;27.60;27.80;;;;;;2264199;61;20418;-52
2023/08/31 01:12:02;0.00;0.00;0.62;0.00;0.00;0.62;2.80;1.83;;;27.60;27.70;;;;;;2264838;61;20360;-54
2023/08/31 01:14:59;0.00;0.00;0.62;0.00;0.00;0.62;2.67;1.57;;;27.60;28.30;;;;;;2264413;61;20847;-52
2023/08/31 01:17:48;0.00;0.00;0.62;0.00;0.00;0.62;2.83;1.73;;;27.60;27.80;;;;;;2264266;61;20444;-50
2023/08/31 01:20:42;0.00;0.00;0.62;0.00;0.00;0.62;1.87;1.43;;;27.60;27.80;;;;;;2264386;61;20367;-54
2023/08/31 01:23:44;0.00;0.00;0.62;0.00;0.00;0.62;2.60;1.70;;;27.60;27.70;;;;;;2264252;61;20388;-54
2023/08/31 01:26:29;0.00;0.00;0.62;0.00;0.00;0.62;2.50;1.67;;;27.50;27.70;;;;;;2264512;61;20387;-53
2023/08/31 01:29:14;0.00;0.00;0.62;0.00;0.00;0.62;1.70;1.20;;;27.50;27.70;;;;;;2264213;61;20360;-56
2023/08/31 01:32:00;0.00;0.00;0.62;0.00;0.00;0.62;1.90;1.47;;;27.50;27.70;;;;;;2264369;61;20539;-53
2023/08/31 01:34:44;0.00;0.00;0.62;0.00;0.00;0.62;2.80;1.73;;;27.50;27.70;;;;;;2263886;61;20389;-55
2023/08/31 01:37:40;0.00;0.00;0.62;0.00;0.00;0.62;1.83;1.20;;;27.50;27.70;;;;;;2264449;61;20363;-50
2023/08/31 01:40:35;0.00;0.00;0.62;0.00;0.00;0.62;2.33;1.53;;;27.50;27.70;;;;;;2264492;61;20874;-53
2023/08/31 01:43:22;0.00;0.00;0.62;0.00;0.00;0.62;1.77;1.37;;;27.50;27.70;;;;;;2263976;61;20376;-52
2023/08/31 01:46:07;0.00;0.00;0.62;0.00;0.00;0.62;2.73;1.63;;;27.50;27.70;;;;;;2263655;61;20486;-58
2023/08/31 01:48:52;0.00;0.00;0.62;0.00;0.00;0.62;2.53;1.53;;;27.50;27.70;;;;;;2263977;61;20507;-54
2023/08/31 01:51:37;0.00;0.00;0.62;0.00;0.00;0.62;2.93;1.53;;;27.50;27.70;;;;;;2263807;61;20406;-58
2023/08/31 01:54:21;0.00;0.00;0.62;0.00;0.00;0.62;1.70;1.30;;;27.50;27.70;;;;;;2259995;61;20388;-53
2023/08/31 01:57:07;0.00;0.00;0.62;0.00;0.00;0.62;2.10;1.40;;;27.50;27.70;;;;;;2253862;61;20791;-57
2023/08/31 02:00:04;0.00;0.00;0.62;0.00;0.00;0.62;2.00;1.40;;;27.50;27.70;;;;;;2587762;45;20979;-47
2023/08/31 02:02:59;0.00;0.00;0.62;0.00;0.00;0.62;2.03;1.43;;;27.50;27.70;;;;;;2260396;61;20450;-54
2023/08/31 02:05:44;0.00;0.00;0.62;0.00;0.00;0.62;2.67;1.50;;;27.50;27.70;;;;;;2260332;61;21010;-56
2023/08/31 02:08:29;0.00;0.00;0.62;0.00;0.00;0.62;2.50;1.60;;;27.50;27.70;;;;;;2260465;61;20874;-54
2023/08/31 02:11:13;0.00;0.00;0.62;0.00;0.00;0.62;2.57;1.47;;;27.50;27.70;;;;;;2259830;61;20365;-50
2023/08/31 02:13:59;0.00;0.00;0.62;0.00;0.00;0.62;2.20;1.40;;;27.50;27.70;;;;;;2259448;61;20431;-50
2023/08/31 02:16:44;0.00;0.00;0.62;0.00;0.00;0.62;1.60;1.20;;;27.50;27.70;;;;;;2262038;61;20445;-52
2023/08/31 02:19:28;0.00;0.00;0.62;0.00;0.00;0.62;2.13;1.70;;;27.50;27.70;;;;;;2264347;61;20493;-54
2023/08/31 02:22:13;0.00;0.00;0.62;0.00;0.00;0.62;1.90;1.60;;;27.50;27.70;;;;;;2264076;61;20363;-53
2023/08/31 02:24:58;0.00;0.00;0.62;0.00;0.00;0.62;1.80;1.40;;;27.40;27.60;;;;;;2263725;61;20383;-49
2023/08/31 02:27:43;0.00;0.00;0.62;0.00;0.00;0.62;1.87;1.50;;;27.40;27.60;;;;;;2264211;61;20403;-55
2023/08/31 02:30:28;0.00;0.00;0.62;0.00;0.00;0.62;2.37;1.47;;;27.40;27.60;;;;;;2264268;61;20765;-52
2023/08/31 02:33:13;0.00;0.00;0.62;0.00;0.00;0.62;2.00;1.23;;;27.40;27.60;;;;;;2264117;61;20380;-56
2023/08/31 02:35:58;0.00;0.00;0.62;0.00;0.00;0.62;2.30;1.50;;;27.40;27.60;;;;;;2264289;61;21010;-51
2023/08/31 02:38:43;0.00;0.00;0.62;0.00;0.00;0.62;2.30;1.37;;;27.40;27.60;;;;;;2263949;61;20458;-54
2023/08/31 02:41:27;0.00;0.00;0.62;0.00;0.00;0.62;2.20;1.50;;;27.40;27.60;;;;;;2264573;61;20379;-52
2023/08/31 02:44:12;0.00;0.00;0.62;0.00;0.00;0.62;3.93;2.13;;;27.40;27.60;;;;;;2263742;61;20415;-51
2023/08/31 02:46:58;0.00;0.00;0.62;0.00;0.00;0.62;2.30;1.40;;;27.40;27.60;;;;;;2264352;61;20391;-52
2023/08/31 02:49:45;0.00;0.00;0.62;0.00;0.00;0.62;2.07;1.30;;;27.40;27.60;;;;;;2264295;61;20364;-51
2023/08/31 02:52:30;0.00;0.00;0.62;0.00;0.00;0.62;2.90;1.60;;;27.40;27.60;;;;;;2264385;61;20414;-53
2023/08/31 02:55:14;0.00;0.00;0.62;0.00;0.00;0.62;2.53;1.40;;;27.40;27.60;;;;;;2263941;61;20476;-53
2023/08/31 02:58:00;0.00;0.00;0.62;0.00;0.00;0.62;2.17;1.67;;;27.40;27.60;;;;;;2264531;61;20467;-55
2023/08/31 03:00:47;0.00;0.00;0.62;0.00;0.00;0.62;2.00;1.50;;;27.40;27.60;;;;;;2265060;61;20886;-50
2023/08/31 03:03:34;0.00;0.00;0.62;0.00;0.00;0.62;2.80;1.30;;;27.40;27.60;;;;;;2264052;61;20367;-51
2023/08/31 03:06:19;0.00;0.00;0.62;0.00;0.00;0.62;2.63;1.33;;;27.40;27.60;;;;;;2264053;61;20461;-50
2023/08/31 03:09:04;0.00;0.00;0.62;0.00;0.00;0.62;2.03;1.60;;;27.40;27.50;;;;;;2265024;61;20855;-48
2023/08/31 03:11:49;0.00;0.00;0.62;0.00;0.00;0.62;2.10;1.40;;;27.40;28.00;;;;;;2264361;61;20364;-51
2023/08/31 03:14:33;0.00;0.00;0.62;0.00;0.00;0.62;2.83;1.67;;;27.40;27.50;;;;;;2264243;61;20384;-52
2023/08/31 03:17:18;0.00;0.00;0.62;0.00;0.00;0.62;2.13;1.47;;;27.40;27.50;;;;;;2265032;61;20363;-53
2023/08/31 03:20:06;0.00;0.00;0.62;0.00;0.00;0.62;2.57;1.70;;;27.40;27.50;;;;;;2265065;61;20384;-55
2023/08/31 03:22:51;0.00;0.00;0.62;0.00;0.00;0.62;2.13;1.33;;;27.40;27.50;;;;;;2264656;61;20438;-58
2023/08/31 03:25:35;0.00;0.00;0.62;0.00;0.00;0.62;3.93;1.60;;;27.40;27.50;;;;;;2265035;61;20374;-56
2023/08/31 03:28:20;0.00;0.00;0.62;0.00;0.00;0.62;2.17;1.40;;;27.40;28.00;;;;;;2264591;61;20387;-53
2023/08/31 03:31:05;0.00;0.00;0.62;0.00;0.00;0.62;2.50;1.50;;;27.40;27.60;;;;;;2265113;61;20395;-52
2023/08/31 03:33:50;0.00;0.00;0.62;0.00;0.00;0.62;3.70;1.60;;;27.30;27.40;;;;;;2263855;61;20400;-56
2023/08/31 03:36:37;0.00;0.00;0.62;0.00;0.00;0.62;2.30;1.43;;;27.30;27.50;;;;;;2264782;61;20913;-52
2023/08/31 03:39:21;0.00;0.00;0.62;0.00;0.00;0.62;2.03;1.70;;;27.30;27.50;;;;;;2264460;61;20808;-57
2023/08/31 03:42:06;0.00;0.00;0.62;0.00;0.00;0.62;2.50;1.40;;;27.30;27.50;;;;;;2265113;61;20364;-55
2023/08/31 03:44:51;0.00;0.00;0.62;0.00;0.00;0.62;2.77;1.30;;;27.30;27.50;;;;;;2263959;61;20380;-54
2023/08/31 03:47:35;0.00;0.00;0.62;0.00;0.00;0.62;1.80;1.27;;;27.30;27.50;;;;;;2264561;61;20391;-53
2023/08/31 03:50:20;0.00;0.00;0.62;0.00;0.00;0.62;2.17;1.30;;;27.30;27.50;;;;;;2264818;61;20966;-52
2023/08/31 03:53:06;0.00;0.00;0.62;0.00;0.00;0.62;2.73;1.70;;;27.30;27.50;;;;;;2264988;61;20364;-55
2023/08/31 03:55:51;0.00;0.00;0.62;0.00;0.00;0.62;3.60;1.70;;;27.30;27.50;;;;;;2264554;61;20868;-50
2023/08/31 03:58:35;0.00;0.00;0.62;0.00;0.00;0.62;2.20;1.50;;;27.30;27.50;;;;;;2264256;61;20686;-54
2023/08/31 04:01:20;0.00;0.00;0.62;0.00;0.00;0.62;1.70;1.23;;;27.30;27.50;;;;;;2264357;61;20359;-54
2023/08/31 04:04:05;0.00;0.00;0.62;0.00;0.00;0.62;2.10;1.80;;;27.30;27.50;;;;;;2264120;61;20417;-54
2023/08/31 04:06:50;0.00;0.00;0.62;0.00;0.00;0.62;2.30;1.50;;;27.30;27.50;;;;;;2264444;61;20387;-50
2023/08/31 04:09:35;0.00;0.00;0.62;0.00;0.00;0.62;1.80;1.33;;;27.30;27.50;;;;;;2264903;61;20778;-55
2023/08/31 04:12:20;0.00;0.00;0.62;0.00;0.00;0.62;1.60;1.20;;;27.30;27.50;;;;;;2264589;61;20443;-54
2023/08/31 04:15:06;0.00;0.00;0.62;0.00;0.00;0.62;2.17;1.60;;;27.30;27.50;;;;;;2264112;61;20426;-56
2023/08/31 04:17:51;0.00;0.00;0.62;0.00;0.00;0.62;2.13;1.33;;;27.20;27.40;;;;;;2264866;61;20360;-55
2023/08/31 04:20:36;0.00;0.00;0.62;0.00;0.00;0.62;2.77;1.70;;;27.20;27.40;;;;;;2264638;61;20364;-55
2023/08/31 04:23:21;0.00;0.00;0.62;0.00;0.00;0.62;1.67;1.37;;;27.30;27.50;;;;;;2264441;61;20453;-52
2023/08/31 04:26:13;0.00;0.00;0.62;0.00;0.00;0.62;3.00;1.80;;;27.20;27.40;;;;;;2264785;61;20456;-51
2023/08/31 04:28:58;0.00;0.00;0.62;0.00;0.00;0.62;2.80;1.50;;;27.20;27.40;;;;;;2264712;61;20403;-53
2023/08/31 04:31:42;0.00;0.00;0.62;0.00;0.00;0.62;2.87;1.77;;;27.20;27.40;;;;;;2264793;61;20414;-50
2023/08/31 04:34:27;0.00;0.00;0.62;0.00;0.00;0.62;1.90;1.40;;;27.20;27.50;;;;;;2264166;61;20483;-49
2023/08/31 04:37:11;0.00;0.00;0.62;0.00;0.00;0.62;2.93;1.70;;;27.20;27.40;;;;;;2264435;61;20945;-53
2023/08/31 04:39:57;0.00;0.00;0.62;0.00;0.00;0.62;2.67;1.70;;;27.20;27.50;;;;;;2264859;61;20609;-53
2023/08/31 04:42:44;0.00;0.00;0.62;0.00;0.00;0.62;1.60;1.30;;;27.20;27.40;;;;;;2264611;61;20490;-50
2023/08/31 04:45:28;0.00;0.00;0.62;0.00;0.00;0.62;2.60;1.70;;;27.20;27.40;;;;;;2264344;61;20913;-52
2023/08/31 04:48:15;0.00;0.00;0.62;0.00;0.00;0.62;1.80;1.13;;;27.20;27.50;;;;;;2264628;61;21032;-55
2023/08/31 04:51:00;0.00;0.00;0.62;0.00;0.00;0.62;1.87;1.37;;;27.20;27.40;;;;;;2264673;61;20368;-51
2023/08/31 04:53:44;0.00;0.00;0.62;0.00;0.00;0.62;2.07;1.57;;;27.20;27.40;;;;;;2264436;61;20408;-55
2023/08/31 04:56:34;0.00;0.00;0.62;0.00;0.00;0.62;1.83;1.30;;;27.20;27.40;;;;;;2264537;61;20360;-58
2023/08/31 04:59:20;0.00;0.00;0.62;0.00;0.00;0.62;2.60;1.53;;;27.20;27.40;;;;;;2264750;61;20356;-49
2023/08/31 05:02:05;0.00;0.00;0.62;0.00;0.00;0.62;2.60;1.80;;;27.20;27.40;;;;;;2264770;61;20365;-51
2023/08/31 05:04:49;0.00;0.00;0.62;0.00;0.00;0.62;2.80;1.87;;;27.20;27.40;;;;;;2264216;61;20384;-55
2023/08/31 05:07:34;0.00;0.00;0.62;0.00;0.00;0.62;2.37;1.47;;;27.20;27.40;;;;;;2264664;61;21032;-54
2023/08/31 05:10:18;0.00;0.00;0.62;0.00;0.00;0.62;2.67;1.67;;;27.20;27.40;;;;;;2264687;61;20769;-56
2023/08/31 05:13:04;0.00;0.00;0.62;0.00;0.00;0.62;2.97;1.90;;;27.20;27.40;;;;;;2264280;61;20452;-50
2023/08/31 05:15:50;0.00;0.00;0.62;0.00;0.00;0.62;2.13;1.30;;;27.20;27.40;;;;;;2264686;61;20392;-52
2023/08/31 05:18:35;0.00;0.00;0.62;0.00;0.00;0.62;2.07;1.70;;;27.20;27.40;;;;;;2264411;61;20866;-57
2023/08/31 05:21:20;0.00;0.00;0.62;0.00;0.00;0.62;2.00;1.40;;;27.20;27.40;;;;;;2264622;61;20451;-55
2023/08/31 05:24:05;0.00;0.00;0.62;0.00;0.00;0.62;2.40;1.50;;;27.20;27.40;;;;;;2264261;61;20933;-51
2023/08/31 05:26:50;0.00;0.00;0.62;0.00;0.00;0.62;1.90;1.27;;;27.20;27.40;;;;;;2264308;61;20411;-57
2023/08/31 05:29:35;0.00;0.00;0.62;0.00;0.00;0.62;2.27;1.73;;;27.20;27.40;;;;;;2264792;61;20936;-51
2023/08/31 05:32:21;0.00;0.00;0.62;0.00;0.00;0.62;3.03;2.23;;;27.10;27.30;;;;;;2264417;61;20356;-50
2023/08/31 05:35:07;0.00;0.00;0.62;0.00;0.00;0.62;2.50;1.60;;;27.10;27.30;;;;;;2264213;61;20391;-53
2023/08/31 05:37:51;0.00;0.00;0.62;0.00;0.00;0.62;3.47;2.57;;;27.10;27.30;;;;;;2264402;61;20426;-51
2023/08/31 05:40:36;0.00;0.00;0.62;0.00;0.00;0.62;2.03;1.30;;;27.20;27.40;;;;;;2264571;61;20367;-49
2023/08/31 05:43:20;0.00;0.00;0.62;0.00;0.00;0.62;2.80;1.40;;;27.10;27.30;;;;;;2264176;61;20882;-51
2023/08/31 05:46:05;0.00;0.00;0.62;0.00;0.00;0.62;4.20;2.03;;;27.10;27.30;;;;;;2264563;61;20364;-59
2023/08/31 05:48:52;0.00;0.00;0.62;0.00;0.00;0.62;2.63;1.80;;;27.10;27.30;;;;;;2264366;61;20452;-57
2023/08/31 05:51:37;0.00;0.00;0.62;0.00;0.00;0.62;3.27;2.00;;;27.20;27.40;;;;;;2264564;61;20390;-53
2023/08/31 05:54:22;0.00;0.00;0.62;0.00;0.00;0.62;2.80;1.80;;;27.10;27.30;;;;;;2264273;61;20831;-55
2023/08/31 05:57:06;0.00;0.00;0.62;0.00;0.00;0.62;2.87;1.93;;;27.20;27.40;;;;;;2264316;61;20355;-53
2023/08/31 05:59:51;0.00;0.00;0.62;0.00;0.00;0.62;3.43;1.60;;;27.10;27.30;;;;;;2264591;61;20369;-54
2023/08/31 06:02:35;0.00;0.00;0.62;0.00;0.00;0.62;2.33;1.67;;;27.10;27.30;;;;;;2264602;61;20401;-51
2023/08/31 06:05:21;0.00;0.00;0.62;0.00;0.00;0.62;3.17;2.00;;;27.10;27.30;;;;;;2264136;61;20925;-51
2023/08/31 06:08:06;0.00;0.00;0.62;0.00;0.00;0.62;2.63;1.90;;;27.10;27.30;;;;;;2264335;61;20407;-54
2023/08/31 06:10:51;0.00;0.00;0.62;0.00;0.00;0.62;4.30;2.40;;;27.10;27.30;;;;;;2264328;61;20403;-51
2023/08/31 06:13:35;0.00;0.00;0.62;0.00;0.00;0.62;2.10;1.80;;;27.10;27.30;;;;;;2264005;61;20364;-54
2023/08/31 06:16:20;0.00;0.00;0.62;0.00;0.00;0.62;4.03;2.53;;;27.10;27.30;;;;;;2264528;61;20367;-54
2023/08/31 06:19:05;0.00;0.00;0.62;0.00;0.00;0.62;2.70;2.20;;;27.10;27.30;;;;;;2264199;61;20359;-52
2023/08/31 06:21:51;0.00;0.00;0.62;0.00;0.00;0.62;3.07;2.20;;;27.10;27.30;;;;;;2264186;61;20402;-55
2023/08/31 06:24:36;0.00;0.00;0.62;0.00;0.00;0.62;2.30;2.03;;;27.10;27.30;;;;;;2264001;61;20421;-50
2023/08/31 06:27:21;0.00;0.00;0.62;0.00;0.00;0.62;2.87;2.57;;;27.10;27.30;;;;;;2264198;61;20422;-49
2023/08/31 06:30:08;0.00;0.00;0.62;0.00;0.00;0.62;3.77;2.50;;;27.10;27.30;;;;;;2264511;61;20664;-49
2023/08/31 06:32:53;0.00;0.00;0.62;0.00;0.00;0.62;2.30;2.10;;;27.10;27.30;;;;;;2264139;61;20379;-50
2023/08/31 06:35:37;0.00;0.00;0.62;0.00;0.00;0.62;2.80;2.20;;;27.10;27.30;;;;;;2264169;61;20387;-50
2023/08/31 06:38:23;0.00;0.00;0.62;0.00;0.00;0.62;4.50;2.90;;;27.10;27.30;;;;;;2264354;61;20356;-58
2023/08/31 06:41:09;0.00;0.00;0.62;0.00;0.00;0.62;3.10;2.53;;;27.10;27.30;;;;;;2263961;61;20395;-52
2023/08/31 06:43:53;0.00;0.00;0.62;0.00;0.00;0.62;3.50;2.80;;;27.10;27.30;;;;;;2263809;61;20411;-57
2023/08/31 06:46:38;0.00;0.00;0.62;0.00;0.00;0.62;3.40;3.10;;;27.10;27.30;;;;;;2264249;61;20388;-51
2023/08/31 06:49:23;0.00;0.00;0.62;0.00;0.00;0.62;4.47;2.83;;;27.10;27.30;;;;;;2264158;61;20765;-50
2023/08/31 06:52:08;0.00;0.00;0.62;0.00;0.00;0.62;3.13;2.63;;;27.10;27.30;;;;;;2264443;61;20448;-53
2023/08/31 06:54:56;0.00;0.00;0.62;0.00;0.00;0.62;3.63;3.13;;;27.10;27.30;;;;;;2263805;61;20916;-58
2023/08/31 06:57:41;0.00;0.00;0.62;0.00;0.00;0.62;3.20;2.90;;;27.10;27.30;;;;;;2264470;61;20403;-52
2023/08/31 07:00:26;0.00;0.00;0.62;0.00;0.00;0.62;3.90;3.23;;;27.10;27.30;;;;;;2264447;61;20387;-52
2023/08/31 07:03:10;0.00;0.00;0.62;0.00;0.00;0.62;4.07;3.33;;;27.10;27.30;;;;;;2263956;61;20363;-53
2023/08/31 07:05:55;0.00;0.00;0.62;0.00;0.00;0.62;3.80;3.40;;;27.10;27.30;;;;;;2264059;61;20395;-50
2023/08/31 07:08:40;0.00;0.00;0.62;0.00;0.00;0.62;3.90;3.50;;;27.10;27.30;;;;;;2264413;61;20765;-54
2023/08/31 07:11:27;0.00;0.00;0.62;0.00;0.00;0.62;3.73;3.20;;;27.10;27.30;;;;;;2264185;61;20774;-51
2023/08/31 07:14:12;0.00;0.00;0.62;0.00;0.00;0.62;4.27;3.73;;;27.10;27.30;;;;;;2264043;61;20415;-51
2023/08/31 07:16:56;0.00;0.00;0.62;0.00;0.00;0.62;4.40;4.00;;;27.10;27.30;;;;;;2264362;61;20455;-53
2023/08/31 07:19:41;0.00;0.00;0.62;0.00;0.00;0.62;4.30;3.70;;;27.00;27.30;;;;;;2264215;61;20360;-55
2023/08/31 07:22:25;0.00;0.00;0.62;0.00;0.00;0.62;6.03;3.63;;;27.10;27.30;;;;;;2264288;61;20376;-47
2023/08/31 07:25:10;0.00;0.00;0.62;0.00;0.00;0.62;4.10;3.50;;;27.10;27.30;;;;;;2263582;61;20926;-54
2023/08/31 07:27:56;0.00;0.00;0.62;0.00;0.00;0.62;4.20;3.77;;;27.10;27.30;;;;;;2264134;61;20383;-52
2023/08/31 07:30:40;0.00;0.00;0.62;0.00;0.00;0.62;5.07;3.93;;;27.10;27.30;;;;;;2264398;61;20445;-55
2023/08/31 07:33:25;0.00;0.00;0.62;0.00;0.00;0.62;5.10;3.80;;;27.10;27.30;;;;;;2263632;61;20468;-50
2023/08/31 07:36:10;0.00;0.00;0.62;0.00;0.00;0.62;4.03;3.60;;;27.10;27.30;;;;;;2264050;61;20443;-52
2023/08/31 07:38:54;0.00;0.00;0.62;0.00;0.00;0.62;3.83;3.53;;;27.10;27.40;;;;;;2264455;61;20403;-53
2023/08/31 07:41:39;0.00;0.00;0.62;0.00;0.00;0.62;3.97;3.67;;;27.10;27.30;;;;;;2264015;61;20360;-52
2023/08/31 07:44:25;0.00;0.00;0.62;0.00;0.00;0.62;4.73;4.30;;;27.10;27.40;;;;;;2264550;61;20382;-53
2023/08/31 07:47:10;0.00;0.00;0.62;0.00;0.00;0.62;4.20;3.80;;;27.10;27.40;;;;;;2264607;61;20392;-56
2023/08/31 07:49:54;0.00;0.00;0.62;0.00;0.00;0.62;4.10;3.60;;;27.10;27.40;;;;;;2265067;61;20906;-52
2023/08/31 07:52:39;0.00;0.00;0.62;0.00;0.00;0.62;4.00;3.70;;;27.10;27.40;;;;;;2264842;61;20452;-50
2023/08/31 07:55:23;0.00;0.00;0.62;0.00;0.00;0.62;3.70;3.40;;;27.10;27.50;;;;;;2264296;61;20415;-53
2023/08/31 07:58:08;0.00;0.00;0.62;0.00;0.00;0.62;4.40;4.00;;;27.10;27.40;;;;;;2265014;61;20372;-52
2023/08/31 08:00:55;0.00;0.00;0.62;0.00;0.00;0.62;3.50;3.20;;;27.10;27.50;;;;;;2264955;61;20364;-53
2023/08/31 08:03:40;0.00;0.00;0.62;0.00;0.00;0.62;4.27;2.90;;;27.10;27.50;;;;;;2264240;61;20414;-57
2023/08/31 08:06:24;0.00;0.00;0.62;0.00;0.00;0.62;3.70;3.40;;;27.10;27.50;;;;;;2264875;61;20396;-55
2023/08/31 08:09:10;0.00;0.00;0.62;0.00;0.00;0.62;3.73;3.10;;;27.10;27.50;;;;;;2264620;61;20364;-53
2023/08/31 08:11:54;0.00;0.00;0.62;0.00;0.00;0.62;3.50;3.17;;;27.10;27.50;;;;;;2265025;61;20410;-54
2023/08/31 08:14:39;0.00;0.00;0.62;0.00;0.00;0.62;3.60;3.30;;;27.10;27.50;;;;;;2264518;61;20426;-50
2023/08/31 08:17:25;0.00;0.00;0.62;0.00;0.00;0.62;3.40;3.10;;;27.10;27.50;;;;;;2264691;61;20360;-57
2023/08/31 08:20:11;0.00;0.00;0.62;0.00;0.00;0.62;3.43;3.13;;;27.10;27.50;;;;;;2264794;61;20939;-56
2023/08/31 08:22:57;0.00;0.00;0.62;0.00;0.00;0.62;3.30;3.00;;;27.10;27.60;;;;;;2264706;61;20368;-56
2023/08/31 08:25:43;0.00;0.00;0.62;0.00;0.00;0.62;4.70;3.50;;;27.00;27.50;;;;;;2264315;61;20800;-54
2023/08/31 08:28:28;0.00;0.00;0.62;0.00;0.00;0.62;3.43;3.13;;;27.10;27.60;;;;;;2264116;61;20379;-54
2023/08/31 08:31:12;0.00;0.00;0.62;0.00;0.00;0.62;3.47;3.00;;;27.00;27.50;;;;;;2264415;61;20359;-56
2023/08/31 08:33:58;0.00;0.00;0.62;0.00;0.00;0.62;3.30;2.83;;;27.10;27.60;;;;;;2264402;61;20526;-57
2023/08/31 08:36:43;0.00;0.00;0.62;0.00;0.00;0.62;3.20;2.67;;;27.00;27.50;;;;;;2264553;61;20894;-55
2023/08/31 08:39:28;0.00;0.00;0.62;0.00;0.00;0.62;4.10;3.70;;;27.10;27.60;;;;;;2264606;61;20368;-52
2023/08/31 08:42:13;0.00;0.00;0.62;0.00;0.00;0.62;3.40;2.93;;;27.00;27.60;;;;;;2264669;61;20407;-49
2023/08/31 08:44:58;0.00;0.00;0.62;0.00;0.00;0.62;3.17;2.87;;;27.10;27.70;;;;;;2264550;61;20410;-53
2023/08/31 08:47:44;0.00;0.00;0.62;0.00;0.00;0.62;3.07;2.77;;;27.00;27.60;;;;;;2264500;61;20431;-52
2023/08/31 08:50:31;0.00;0.00;0.62;0.00;0.00;0.62;3.30;3.03;;;27.00;27.70;;;;;;2264312;61;20785;-50
2023/08/31 08:53:16;0.00;0.00;0.62;0.00;0.00;0.62;3.77;3.27;;;27.00;27.70;;;;;;2264156;61;20412;-52
2023/08/31 08:56:01;0.00;0.00;0.62;0.00;0.00;0.62;3.27;2.60;;;27.00;27.70;;;;;;2264865;61;20402;-55
2023/08/31 08:58:46;0.00;0.00;0.62;0.00;0.00;0.62;3.10;2.80;;;27.00;27.70;;;;;;2263985;61;20368;-54
2023/08/31 09:01:31;0.00;0.00;0.62;0.00;0.00;0.62;3.37;3.00;;;27.00;27.70;;;;;;2264533;61;20382;-53
2023/08/31 09:04:16;0.00;0.00;0.62;0.00;0.00;0.62;3.30;2.50;;;27.00;27.70;;;;;;2264357;61;20461;-59
2023/08/31 09:07:02;0.00;0.00;0.62;0.00;0.00;0.62;6.20;2.90;;;27.00;27.70;;;;;;2264642;61;20387;-54
2023/08/31 09:09:52;0.00;0.00;0.62;0.00;0.00;0.62;4.00;2.87;;;27.00;27.70;;;;;;2264542;61;20877;-50
2023/08/31 09:12:39;0.00;0.00;0.62;0.00;0.00;0.62;3.70;3.03;;;27.00;27.70;;;;;;2264819;61;20722;-53
2023/08/31 09:15:25;0.00;0.00;0.62;0.00;0.00;0.62;4.20;3.40;;;27.00;27.60;;;;;;2264383;61;20466;-57
2023/08/31 09:18:15;0.00;0.00;0.62;0.00;0.00;0.62;3.73;3.43;;;27.00;27.70;;;;;;2264613;61;20773;-57
2023/08/31 09:21:01;0.00;0.00;0.62;0.00;0.00;0.62;3.47;3.17;;;27.00;27.70;;;;;;2264735;61;20411;-54
2023/08/31 09:23:57;0.00;0.00;0.62;0.00;0.00;0.62;3.53;3.20;;;27.00;27.70;;;;;;2264103;61;20894;-49
2023/08/31 09:26:44;0.00;0.00;0.62;0.00;0.00;0.62;3.60;3.30;;;27.00;27.70;;;;;;2264706;61;20521;-51
2023/08/31 09:29:30;0.00;0.00;0.62;0.00;0.00;0.62;4.33;3.73;;;27.00;27.70;;;;;;2264708;61;20368;-55
2023/08/31 09:32:17;0.00;0.00;0.62;0.00;0.00;0.62;3.70;3.30;;;27.00;27.70;;;;;;2264503;61;20858;-55
2023/08/31 09:35:03;0.00;0.00;0.62;0.00;0.00;0.62;4.63;3.50;;;27.00;27.70;;;;;;2264300;61;20831;-54
2023/08/31 09:37:57;0.00;0.00;0.62;0.00;0.00;0.62;3.97;3.50;;;27.00;27.70;;;;;;2264595;61;20363;-52
2023/08/31 09:40:43;0.00;0.00;0.62;0.00;0.00;0.62;3.37;3.00;;;27.00;27.70;;;;;;2264771;61;20364;-52
2023/08/31 09:43:28;0.00;0.00;0.62;0.00;0.00;0.62;3.50;3.20;;;27.00;27.70;;;;;;2264299;61;20906;-54
2023/08/31 09:46:13;0.00;0.00;0.62;0.00;0.00;0.62;4.70;3.40;;;27.00;27.70;;;;;;2264474;61;20906;-55
2023/08/31 09:48:58;0.00;0.00;0.62;0.00;0.00;0.62;3.47;3.17;;;27.00;27.70;;;;;;2264668;61;20380;-54
2023/08/31 09:51:47;0.00;0.00;0.62;0.00;0.00;0.62;3.40;3.10;;;27.00;27.70;;;;;;2264647;61;20368;-52
2023/08/31 09:54:35;0.00;0.00;0.62;0.00;0.00;0.62;3.40;3.10;;;27.00;27.70;;;;;;2263940;61;20383;-54
2023/08/31 09:57:23;0.00;0.00;0.62;0.00;0.00;0.62;3.47;3.17;;;27.00;27.70;;;;;;2264575;61;20426;-52
2023/08/31 10:00:09;0.00;0.00;0.62;0.00;0.00;0.62;3.27;2.97;;;27.00;27.70;;;;;;2264137;61;20386;-54
2023/08/31 10:02:56;0.00;0.00;0.62;0.00;0.00;0.62;4.13;3.10;;;27.00;27.80;;;;;;2264714;61;20414;-61
2023/08/31 10:05:43;0.00;0.00;0.62;0.00;0.00;0.62;3.60;3.30;;;27.00;27.80;;;;;;2263641;61;20384;-51
2023/08/31 10:08:31;0.00;0.00;0.62;0.00;0.00;0.62;3.83;3.37;;;27.00;27.80;;;;;;2264095;61;20388;-53
2023/08/31 10:11:17;0.00;0.00;0.62;0.00;0.00;0.62;3.77;3.03;;;27.00;27.80;;;;;;2264312;61;20423;-48
2023/08/31 10:14:04;0.00;0.00;0.62;0.00;0.00;0.62;3.93;3.23;;;27.00;27.80;;;;;;2263971;61;20380;-55
2023/08/31 10:16:52;0.00;0.00;0.62;0.00;0.00;0.62;3.67;2.93;;;27.00;28.30;;;;;;2264280;61;20396;-53
2023/08/31 10:19:37;0.00;0.00;0.62;0.00;0.00;0.62;3.73;3.43;;;27.00;27.80;;;;;;2264576;61;20415;-55
2023/08/31 10:22:22;0.00;0.00;0.62;0.00;0.00;0.62;3.30;3.00;;;27.10;27.80;;;;;;2264229;61;20790;-55
2023/08/31 10:25:08;0.00;0.00;0.62;0.00;0.00;0.62;3.90;3.00;;;27.00;27.80;;;;;;2264134;61;20392;-55
2023/08/31 10:27:54;0.00;0.00;0.62;0.00;0.00;0.62;2.67;2.47;;;27.10;27.80;;;;;;2264249;61;20706;-53
2023/08/31 10:30:40;0.00;0.00;0.62;0.00;0.00;0.62;3.20;2.90;;;27.00;27.80;;;;;;2264401;61;20368;-52
2023/08/31 10:33:25;0.00;0.00;0.62;0.00;0.00;0.62;2.93;2.67;;;27.10;27.80;;;;;;2263520;61;20419;-53
2023/08/31 10:36:14;0.00;0.00;0.62;0.00;0.00;0.62;3.37;2.90;;;27.10;27.80;;;;;;2264609;61;20371;-52
2023/08/31 10:39:05;0.00;0.00;0.62;0.00;0.00;0.62;3.23;2.93;;;27.10;27.90;;;;;;2263099;61;20423;-53
2023/08/31 10:41:55;0.00;0.00;0.62;0.00;0.00;0.62;3.90;3.17;;;27.10;27.90;;;;;;2260400;61;20871;-53
2023/08/31 10:44:43;0.00;0.00;0.62;0.00;0.00;0.62;4.43;3.10;;;27.10;27.90;;;;;;2259668;61;20416;-56
2023/08/31 10:47:39;0.00;0.00;0.62;0.00;0.00;0.62;2.80;2.50;;;27.10;27.90;;;;;;2260279;61;20388;-52
2023/08/31 10:50:25;0.00;0.00;0.62;0.00;0.00;0.62;3.77;2.83;;;27.10;27.90;;;;;;2260438;61;20369;-56
2023/08/31 10:53:09;0.00;0.00;0.62;0.00;0.00;0.62;3.87;3.20;;;27.10;28.40;;;;;;2259970;61;20364;-59
2023/08/31 10:55:55;0.00;0.00;0.62;0.00;0.00;0.62;3.70;3.40;;;27.10;27.90;;;;;;2260403;61;20901;-56